createdAt,value
2023-04-29T00:01:34.493Z,4.20
2023-04-29T00:04:02.548Z,4.40
2023-04-29T00:06:31.899Z,4.30
2023-04-29T00:08:59.724Z,4.53
2023-04-29T00:11:27.502Z,4.27
2023-04-29T00:13:55.686Z,4.03
2023-04-29T00:16:23.811Z,4.63
2023-04-29T00:18:51.597Z,4.50
2023-04-29T00:21:19.391Z,4.10
2023-04-29T00:23:48.498Z,4.33
2023-04-29T00:26:16.695Z,4.73
2023-04-29T00:28:44.632Z,3.90
2023-04-29T00:31:13.550Z,4.50
2023-04-29T00:33:41.858Z,4.30
2023-04-29T00:36:10.634Z,4.20
2023-04-29T00:38:38.672Z,4.40
2023-04-29T00:41:08.178Z,4.30
2023-04-29T00:43:38.122Z,4.40
2023-04-29T00:46:05.987Z,4.13
2023-04-29T00:48:34.600Z,4.47
2023-04-29T00:51:02.770Z,3.90
2023-04-29T00:53:30.658Z,4.07
2023-04-29T00:55:59.201Z,4.10
2023-04-29T00:58:33.342Z,4.10
2023-04-29T01:01:01.324Z,4.17
2023-04-29T01:03:29.761Z,4.10
2023-04-29T01:06:03.305Z,4.20
2023-04-29T01:08:35.138Z,4.10
2023-04-29T01:11:06.305Z,4.13
2023-04-29T01:13:39.103Z,4.00
2023-04-29T01:16:09.806Z,4.70
2023-04-29T01:18:40.609Z,4.77
2023-04-29T01:21:09.504Z,4.43
2023-04-29T01:23:38.518Z,3.93
2023-04-29T01:26:08.593Z,5.10
2023-04-29T01:28:42.086Z,5.90
2023-04-29T01:31:12.133Z,5.50
2023-04-29T01:33:42.935Z,6.20
2023-04-29T01:36:17.900Z,6.70
2023-04-29T01:38:50.317Z,6.40
2023-04-29T01:41:20.635Z,7.67
2023-04-29T01:43:49.078Z,7.53
2023-04-29T01:46:18.601Z,7.20
2023-04-29T01:48:46.665Z,7.80
2023-04-29T01:51:14.533Z,8.50
2023-04-29T01:53:43.219Z,8.50
2023-04-29T01:56:13.127Z,8.50
2023-04-29T01:58:41.355Z,8.60
2023-04-29T02:01:10.599Z,8.80
2023-04-29T02:03:39.147Z,9.77
2023-04-29T02:06:07.961Z,8.90
2023-04-29T02:08:35.890Z,9.17
2023-04-29T02:11:03.754Z,9.83
2023-04-29T02:13:33.303Z,9.77
2023-04-29T02:16:08.885Z,9.27
2023-04-29T02:18:36.829Z,9.00
2023-04-29T02:21:05.338Z,8.80
2023-04-29T02:23:34.218Z,8.90
2023-04-29T02:26:03.984Z,9.03
2023-04-29T02:28:34.794Z,9.10
2023-04-29T02:31:02.794Z,8.87
2023-04-29T02:33:31.195Z,8.83
2023-04-29T02:35:59.810Z,9.60
2023-04-29T02:38:27.810Z,8.60
2023-04-29T02:40:55.739Z,9.03
2023-04-29T02:43:24.511Z,8.10
2023-04-29T02:45:53.887Z,9.37
2023-04-29T02:48:22.197Z,8.40
2023-04-29T02:50:50.131Z,8.90
2023-04-29T02:53:18.715Z,9.10
2023-04-29T02:55:47.240Z,8.30
2023-04-29T02:58:15.068Z,9.47
2023-04-29T03:00:43.219Z,8.00
2023-04-29T03:03:12.519Z,8.37
2023-04-29T03:05:41.035Z,8.53
2023-04-29T03:08:10.245Z,8.23
2023-04-29T03:10:41.488Z,8.07
2023-04-29T03:13:09.759Z,8.37
2023-04-29T03:15:39.864Z,8.77
2023-04-29T03:18:09.770Z,8.33
2023-04-29T03:20:39.855Z,7.87
2023-04-29T03:23:07.836Z,7.43
2023-04-29T03:25:37.379Z,7.77
2023-04-29T03:28:05.498Z,7.50
2023-04-29T03:30:33.954Z,8.10
2023-04-29T03:33:02.073Z,7.63
2023-04-29T03:35:30.904Z,6.93
2023-04-29T03:38:00.287Z,7.30
2023-04-29T03:40:28.856Z,7.60
2023-04-29T03:42:56.657Z,7.23
2023-04-29T03:45:24.410Z,6.83
2023-04-29T03:47:52.799Z,7.00
2023-04-29T03:50:20.700Z,6.90
2023-04-29T03:52:48.943Z,7.73
2023-04-29T03:55:18.347Z,7.00
2023-04-29T03:57:46.224Z,6.37
2023-04-29T04:00:15.030Z,6.90
2023-04-29T04:02:42.917Z,6.47
2023-04-29T04:05:11.304Z,6.70
2023-04-29T04:07:39.531Z,7.30
2023-04-29T04:10:08.156Z,6.40
2023-04-29T04:12:37.550Z,7.13
2023-04-29T04:15:06.070Z,6.37
2023-04-29T04:17:33.821Z,6.80
2023-04-29T04:20:02.068Z,7.20
2023-04-29T04:22:30.055Z,6.80
2023-04-29T04:24:57.959Z,6.70
2023-04-29T04:27:25.831Z,7.53
2023-04-29T04:29:56.864Z,6.10
2023-04-29T04:32:24.613Z,6.27
2023-04-29T04:34:52.335Z,6.20
2023-04-29T04:37:20.043Z,6.47
2023-04-29T04:39:48.227Z,6.60
2023-04-29T04:42:16.255Z,6.00
2023-04-29T04:44:44.249Z,6.50
2023-04-29T04:47:13.250Z,5.67
2023-04-29T04:49:41.662Z,5.83
2023-04-29T04:52:09.481Z,6.00
2023-04-29T04:54:38.418Z,5.53
2023-04-29T04:57:06.471Z,5.53
2023-04-29T04:59:34.807Z,5.97
2023-04-29T05:02:02.745Z,5.67
2023-04-29T05:04:32.229Z,5.57
2023-04-29T05:07:00.313Z,5.40
2023-04-29T05:09:28.170Z,5.70
2023-04-29T05:11:56.390Z,5.63
2023-04-29T05:14:24.099Z,5.50
2023-04-29T05:16:53.196Z,5.30
2023-04-29T05:19:21.008Z,5.43
2023-04-29T05:21:50.056Z,5.70
2023-04-29T05:24:17.737Z,5.93
2023-04-29T05:26:45.455Z,5.53
2023-04-29T05:29:13.397Z,5.07
2023-04-29T05:31:41.106Z,5.40
2023-04-29T05:34:09.000Z,5.30
2023-04-29T05:36:37.693Z,4.87
2023-04-29T05:39:07.136Z,5.60
2023-04-29T05:41:35.437Z,5.07
2023-04-29T05:44:03.136Z,5.17
2023-04-29T05:46:31.224Z,5.30
2023-04-29T05:48:59.099Z,4.80
2023-04-29T05:51:28.723Z,4.63
2023-04-29T05:53:56.598Z,4.70
2023-04-29T05:56:25.938Z,4.90
2023-04-29T05:58:53.890Z,5.00
2023-04-29T06:01:21.742Z,4.80
2023-04-29T06:03:50.149Z,4.93
2023-04-29T06:06:18.675Z,4.60
2023-04-29T06:08:46.799Z,4.63
2023-04-29T06:11:14.786Z,4.27
2023-04-29T06:13:44.548Z,4.50
2023-04-29T06:16:12.900Z,4.60
2023-04-29T06:18:41.799Z,4.60
2023-04-29T06:21:09.753Z,4.30
2023-04-29T06:23:37.544Z,4.10
2023-04-29T06:26:05.259Z,4.10
2023-04-29T06:28:33.533Z,4.47
2023-04-29T06:31:02.653Z,4.33
2023-04-29T06:33:30.801Z,4.37
2023-04-29T06:35:58.491Z,4.40
2023-04-29T06:38:26.182Z,4.13
2023-04-29T06:40:53.931Z,4.07
2023-04-29T06:43:21.626Z,4.23
2023-04-29T06:45:49.389Z,3.87
2023-04-29T06:48:18.480Z,3.97
2023-04-29T06:50:52.872Z,3.97
2023-04-29T06:53:20.819Z,4.63
2023-04-29T06:55:48.757Z,4.40
2023-04-29T06:58:16.854Z,3.70
2023-04-29T07:00:46.213Z,3.50
2023-04-29T07:03:14.201Z,3.73
2023-04-29T07:05:46.032Z,4.27
2023-04-29T07:08:14.470Z,4.10
2023-04-29T07:10:42.549Z,3.60
2023-04-29T07:13:10.362Z,3.60
2023-04-29T07:15:38.717Z,3.73
2023-04-29T07:18:07.004Z,3.60
2023-04-29T07:20:37.244Z,3.63
2023-04-29T07:23:06.489Z,3.60
2023-04-29T07:25:34.397Z,3.47
2023-04-29T07:28:02.667Z,3.40
2023-04-29T07:30:30.552Z,3.40
2023-04-29T07:32:58.959Z,3.80
2023-04-29T07:35:26.990Z,3.43
2023-04-29T07:37:54.901Z,3.77
2023-04-29T07:40:24.608Z,3.77
2023-04-29T07:42:52.890Z,3.77
2023-04-29T07:45:21.060Z,3.30
2023-04-29T07:47:49.064Z,3.37
2023-04-29T07:50:17.494Z,3.43
2023-04-29T07:52:45.859Z,3.47
2023-04-29T07:55:13.960Z,3.43
2023-04-29T07:57:43.425Z,3.50
2023-04-29T08:00:12.405Z,3.17
2023-04-29T08:02:40.585Z,3.60
2023-04-29T08:05:09.901Z,3.43
2023-04-29T08:07:37.859Z,3.10
2023-04-29T08:10:06.654Z,3.40
2023-04-29T08:12:34.826Z,3.90
2023-04-29T08:15:05.049Z,3.30
2023-04-29T08:17:33.028Z,3.23
2023-04-29T08:20:00.932Z,2.67
2023-04-29T08:22:28.599Z,3.07
2023-04-29T08:24:57.778Z,3.20
2023-04-29T08:27:25.728Z,3.43
2023-04-29T08:29:53.992Z,3.73
2023-04-29T08:32:23.293Z,2.90
2023-04-29T08:34:51.887Z,3.40
2023-04-29T08:37:20.732Z,3.10
2023-04-29T08:39:49.147Z,2.70
2023-04-29T08:42:17.418Z,2.70
2023-04-29T08:44:45.187Z,2.93
2023-04-29T08:47:14.411Z,2.83
2023-04-29T08:49:43.791Z,3.00
2023-04-29T08:52:12.727Z,2.97
2023-04-29T08:54:41.454Z,3.00
2023-04-29T08:57:09.973Z,3.00
2023-04-29T08:59:38.109Z,2.60
2023-04-29T09:02:07.608Z,3.00
2023-04-29T09:04:53.413Z,2.30
2023-04-29T09:07:21.879Z,2.80
2023-04-29T09:09:50.060Z,2.70
2023-04-29T09:12:18.744Z,2.53
2023-04-29T09:14:47.252Z,3.17
2023-04-29T09:17:18.291Z,2.77
2023-04-29T09:19:46.767Z,2.93
2023-04-29T09:22:16.267Z,2.80
2023-04-29T09:24:45.717Z,3.00
2023-04-29T09:27:14.124Z,2.57
2023-04-29T09:29:43.225Z,2.70
2023-04-29T09:32:21.446Z,2.60
2023-04-29T09:34:49.399Z,2.40
2023-04-29T09:37:27.528Z,2.67
2023-04-29T09:39:55.745Z,2.37
2023-04-29T09:42:23.724Z,2.70
2023-04-29T09:44:52.324Z,2.50
2023-04-29T09:47:20.857Z,2.50
2023-04-29T09:49:50.093Z,2.70
2023-04-29T09:52:18.313Z,2.40
2023-04-29T09:54:47.833Z,2.43
2023-04-29T09:57:16.138Z,2.50
2023-04-29T09:59:44.110Z,2.27
2023-04-29T10:02:15.682Z,2.50
2023-04-29T10:04:43.750Z,2.53
2023-04-29T10:07:12.782Z,2.40
2023-04-29T10:09:40.601Z,2.33
2023-04-29T10:12:09.955Z,2.07
2023-04-29T10:14:40.782Z,2.10
2023-04-29T10:17:12.280Z,2.40
2023-04-29T10:19:40.993Z,2.03
2023-04-29T10:22:10.286Z,1.80
2023-04-29T10:24:38.807Z,2.03
2023-04-29T10:27:09.596Z,1.90
2023-04-29T10:29:38.289Z,2.10
2023-04-29T10:32:07.717Z,2.30
2023-04-29T10:34:36.062Z,2.13
2023-04-29T10:37:03.981Z,1.90
2023-04-29T10:39:34.018Z,2.40
2023-04-29T10:42:02.984Z,2.00
2023-04-29T10:44:32.372Z,2.10
2023-04-29T10:47:21.407Z,2.00
2023-04-29T10:50:03.165Z,1.97
2023-04-29T10:52:30.834Z,2.30
2023-04-29T10:55:03.533Z,1.90
2023-04-29T10:57:31.462Z,1.63
2023-04-29T11:00:00.830Z,2.10
2023-04-29T11:02:28.981Z,1.90
2023-04-29T11:05:10.354Z,2.27
2023-04-29T11:07:38.423Z,2.20
2023-04-29T11:10:07.021Z,1.90
2023-04-29T11:12:34.886Z,2.27
2023-04-29T11:15:05.987Z,2.00
2023-04-29T11:17:37.787Z,2.07
2023-04-29T11:20:07.401Z,1.90
2023-04-29T11:22:35.404Z,2.00
2023-04-29T11:25:04.407Z,1.60
2023-04-29T11:27:32.973Z,1.50
2023-04-29T11:30:01.772Z,1.30
2023-04-29T11:32:32.481Z,1.40
2023-04-29T11:35:09.558Z,1.63
2023-04-29T11:37:37.586Z,1.50
2023-04-29T11:40:07.113Z,1.20
2023-04-29T11:42:36.282Z,1.07
2023-04-29T11:45:04.486Z,1.00
2023-04-29T11:47:34.026Z,1.13
2023-04-29T11:50:06.993Z,1.20
2023-04-29T11:52:36.621Z,1.17
2023-04-29T11:55:04.765Z,1.23
2023-04-29T11:57:33.004Z,1.30
2023-04-29T12:00:01.219Z,1.10
2023-04-29T12:02:34.597Z,1.20
2023-04-29T12:05:06.818Z,1.25
2023-04-29T12:07:34.979Z,0.93
2023-04-29T12:10:03.005Z,1.10
2023-04-29T12:12:32.190Z,0.95
2023-04-29T12:14:59.883Z,1.00
2023-04-29T12:17:28.016Z,1.30
2023-04-29T12:19:57.533Z,1.05
2023-04-29T12:22:27.099Z,1.35
2023-04-29T12:24:56.076Z,1.23
2023-04-29T12:27:24.137Z,1.63
2023-04-29T12:29:53.312Z,1.73
2023-04-29T12:32:24.090Z,1.67
2023-04-29T12:34:53.386Z,2.30
2023-04-29T12:37:23.539Z,1.97
2023-04-29T12:39:53.288Z,2.43
2023-04-29T12:42:21.244Z,2.23
2023-04-29T12:44:50.013Z,2.30
2023-04-29T12:47:17.996Z,2.17
2023-04-29T12:49:46.914Z,1.90
2023-04-29T12:52:14.802Z,2.10
2023-04-29T12:54:44.583Z,1.83
2023-04-29T12:57:12.466Z,2.27
2023-04-29T12:59:41.591Z,2.67
2023-04-29T13:02:09.454Z,2.60
2023-04-29T13:04:38.109Z,2.53
2023-04-29T13:07:07.251Z,2.30
2023-04-29T13:09:37.790Z,2.63
2023-04-29T13:12:09.352Z,2.27
2023-04-29T13:14:37.395Z,2.90
2023-04-29T13:17:05.190Z,2.37
2023-04-29T13:19:49.757Z,2.60
2023-04-29T13:22:21.007Z,2.77
2023-04-29T13:24:49.625Z,3.07
2023-04-29T13:27:19.313Z,2.67
2023-04-29T13:29:48.167Z,2.77
2023-04-29T13:32:18.522Z,3.10
2023-04-29T13:34:47.233Z,2.50
2023-04-29T13:37:15.155Z,2.53
2023-04-29T13:39:45.702Z,2.80
2023-04-29T13:42:15.704Z,2.77
2023-04-29T13:44:59.931Z,2.90
2023-04-29T13:47:30.439Z,2.57
2023-04-29T13:50:36.939Z,2.63
2023-04-29T13:56:11.469Z,2.77
2023-04-29T14:01:05.874Z,2.83
2023-04-29T14:03:26.928Z,2.80
2023-04-29T14:05:55.500Z,1.80
2023-04-29T14:08:23.496Z,2.30
2023-04-29T14:10:51.379Z,2.47
2023-04-29T14:13:19.297Z,2.60
2023-04-29T14:15:48.492Z,2.37
2023-04-29T14:18:16.713Z,2.50
2023-04-29T14:20:44.454Z,2.30
2023-04-29T14:23:12.590Z,2.47
2023-04-29T14:25:40.410Z,2.67
2023-04-29T14:28:08.976Z,2.13
2023-04-29T14:30:36.655Z,2.37
2023-04-29T14:33:06.113Z,2.13
2023-04-29T14:35:33.809Z,2.10
2023-04-29T14:38:01.876Z,3.13
2023-04-29T14:40:29.838Z,2.40
2023-04-29T14:42:57.867Z,2.30
2023-04-29T14:45:26.022Z,2.47
2023-04-29T14:47:54.480Z,2.43
2023-04-29T14:50:25.153Z,2.80
2023-04-29T14:52:53.432Z,2.53
2023-04-29T14:55:21.488Z,3.20
2023-04-29T14:57:49.437Z,2.60
2023-04-29T15:00:17.773Z,2.90
2023-04-29T15:02:45.480Z,5.37
2023-04-29T15:05:13.606Z,4.90
2023-04-29T15:07:42.661Z,3.60
2023-04-29T15:10:11.404Z,2.90
2023-04-29T15:12:39.175Z,3.47
2023-04-29T15:15:08.418Z,2.93
2023-04-29T15:17:36.342Z,3.20
2023-04-29T15:20:05.216Z,3.00
2023-04-29T15:22:33.304Z,3.17
2023-04-29T15:25:02.926Z,3.17
2023-04-29T15:27:30.895Z,2.87
2023-04-29T15:29:59.510Z,3.23
2023-04-29T15:32:31.581Z,2.97
2023-04-29T15:35:00.003Z,2.87
2023-04-29T15:37:28.223Z,2.97
2023-04-29T15:39:56.389Z,2.60
2023-04-29T15:42:26.050Z,2.50
2023-04-29T15:44:53.892Z,2.60
2023-04-29T15:47:23.213Z,2.40
2023-04-29T15:49:52.549Z,2.53
2023-04-29T15:52:20.952Z,2.00
2023-04-29T15:54:48.991Z,2.10
2023-04-29T15:57:17.131Z,2.10
2023-04-29T15:59:46.718Z,1.80
2023-04-29T16:02:15.714Z,2.00
2023-04-29T16:04:43.569Z,2.30
2023-04-29T16:07:11.938Z,2.27
2023-04-29T16:09:39.823Z,2.77
2023-04-29T16:12:08.549Z,1.87
2023-04-29T16:14:36.474Z,2.20
2023-04-29T16:17:06.083Z,2.80
2023-04-29T16:19:36.822Z,2.10
2023-04-29T16:22:05.457Z,2.40
2023-04-29T16:24:33.502Z,2.67
2023-04-29T16:27:01.538Z,2.77
2023-04-29T16:29:29.900Z,3.00
2023-04-29T16:31:57.812Z,2.30
2023-04-29T16:34:27.038Z,2.43
2023-04-29T16:36:54.903Z,2.30
2023-04-29T16:39:23.064Z,2.70
2023-04-29T16:41:51.261Z,2.60
2023-04-29T16:44:19.417Z,2.70
2023-04-29T16:46:47.513Z,3.07
2023-04-29T16:49:16.484Z,8.70
2023-04-29T16:51:45.894Z,4.23
2023-04-29T16:54:14.495Z,3.93
2023-04-29T16:56:42.267Z,3.43
2023-04-29T16:59:11.603Z,2.70
2023-04-29T17:01:39.506Z,2.47
2023-04-29T17:04:08.175Z,2.33
2023-04-29T17:06:37.212Z,2.10
2023-04-29T17:09:06.786Z,2.23
2023-04-29T17:11:34.590Z,2.13
2023-04-29T17:14:03.310Z,1.90
2023-04-29T17:16:32.038Z,2.20
2023-04-29T17:18:59.905Z,1.90
2023-04-29T17:21:30.859Z,1.80
2023-04-29T17:23:58.988Z,1.80
2023-04-29T17:26:28.466Z,1.80
2023-04-29T17:28:56.287Z,1.67
2023-04-29T17:31:31.331Z,1.93
2023-04-29T17:34:05.549Z,1.73
2023-04-29T17:36:34.232Z,1.87
2023-04-29T17:39:02.046Z,1.57
2023-04-29T17:41:31.806Z,1.93
2023-04-29T17:43:59.631Z,2.10
2023-04-29T17:46:28.377Z,1.93
2023-04-29T17:48:56.363Z,1.53
2023-04-29T17:51:24.605Z,2.17
2023-04-29T17:53:52.596Z,2.23
2023-04-29T17:56:23.521Z,1.90
2023-04-29T17:58:53.122Z,2.27
2023-04-29T18:01:21.057Z,1.83
2023-04-29T18:03:50.900Z,1.80
2023-04-29T18:06:18.976Z,1.80
2023-04-29T18:08:47.042Z,2.07
2023-04-29T18:11:14.946Z,1.97
2023-04-29T18:13:42.632Z,2.10
2023-04-29T18:16:11.705Z,2.10
2023-04-29T18:18:39.431Z,1.87
2023-04-29T18:21:07.188Z,1.70
2023-04-29T18:23:36.408Z,1.50
2023-04-29T18:26:04.520Z,1.90
2023-04-29T18:28:32.486Z,1.67
2023-04-29T18:31:00.440Z,1.70
2023-04-29T18:33:31.115Z,1.60
2023-04-29T18:35:59.109Z,1.60
2023-04-29T18:38:27.026Z,1.70
2023-04-29T18:40:54.897Z,1.87
2023-04-29T18:43:28.146Z,1.87
2023-04-29T18:45:57.116Z,1.80
2023-04-29T18:48:25.377Z,1.60
2023-04-29T18:50:54.898Z,2.07
2023-04-29T18:53:22.640Z,1.87
2023-04-29T18:55:50.673Z,1.90
2023-04-29T18:58:18.355Z,1.90
2023-04-29T19:00:46.107Z,1.70
2023-04-29T19:03:15.678Z,2.07
2023-04-29T19:05:44.055Z,1.63
2023-04-29T19:08:16.232Z,1.90
2023-04-29T19:10:44.613Z,1.80
2023-04-29T19:13:12.676Z,1.80
2023-04-29T19:15:41.258Z,1.90
2023-04-29T19:18:09.260Z,1.60
2023-04-29T19:20:37.249Z,1.63
2023-04-29T19:23:05.703Z,1.60
2023-04-29T19:25:35.139Z,1.97
2023-04-29T19:28:03.280Z,1.60
2023-04-29T19:30:31.031Z,1.87
2023-04-29T19:32:58.776Z,1.70
2023-04-29T19:35:26.679Z,1.60
2023-04-29T19:37:54.726Z,1.67
2023-04-29T19:40:22.434Z,1.77
2023-04-29T19:42:51.862Z,2.20
2023-04-29T19:45:19.733Z,1.67
2023-04-29T19:47:48.837Z,2.23
2023-04-29T19:50:16.541Z,1.60
2023-04-29T19:52:44.597Z,1.60
2023-04-29T19:55:12.462Z,1.43
2023-04-29T19:57:40.849Z,1.80
2023-04-29T20:00:13.519Z,1.63
2023-04-29T20:02:41.934Z,1.90
2023-04-29T20:05:10.706Z,2.57
2023-04-29T20:07:38.557Z,1.80
2023-04-29T20:10:07.690Z,2.20
2023-04-29T20:12:35.998Z,1.50
2023-04-29T20:15:05.799Z,2.47
2023-04-29T20:17:35.416Z,1.87
2023-04-29T20:20:03.115Z,1.53
2023-04-29T20:22:30.810Z,2.73
2023-04-29T20:24:58.511Z,2.10
2023-04-29T20:27:26.189Z,1.90
2023-04-29T20:29:54.490Z,2.17
2023-04-29T20:32:22.386Z,2.20
2023-04-29T20:34:51.820Z,2.50
2023-04-29T20:37:20.490Z,2.33
2023-04-29T20:39:48.419Z,2.20
2023-04-29T20:42:16.627Z,2.47
2023-04-29T20:44:44.489Z,2.13
2023-04-29T20:47:12.913Z,1.60
2023-04-29T20:49:40.936Z,2.30
2023-04-29T20:52:11.025Z,1.90
2023-04-29T20:54:39.120Z,2.20
2023-04-29T20:57:08.697Z,2.20
2023-04-29T20:59:36.633Z,2.10
2023-04-29T21:02:04.790Z,1.60
2023-04-29T21:04:32.635Z,2.17
2023-04-29T21:07:02.931Z,1.83
2023-04-29T21:09:32.272Z,1.80
2023-04-29T21:12:01.860Z,1.80
2023-04-29T21:14:29.797Z,2.17
2023-04-29T21:16:58.070Z,1.73
2023-04-29T21:19:25.952Z,2.40
2023-04-29T21:21:54.364Z,2.10
2023-04-29T21:24:22.348Z,2.10
2023-04-29T21:26:51.708Z,1.90
2023-04-29T21:29:20.532Z,2.13
2023-04-29T21:31:48.272Z,1.93
2023-04-29T21:34:16.207Z,2.50
2023-04-29T21:36:44.205Z,2.03
2023-04-29T21:39:12.745Z,2.20
2023-04-29T21:41:40.604Z,1.93
2023-04-29T21:44:10.114Z,2.43
2023-04-29T21:46:37.878Z,1.80
2023-04-29T21:49:06.038Z,2.10
2023-04-29T21:51:34.182Z,1.90
2023-04-29T21:54:06.182Z,2.20
2023-04-29T21:56:33.922Z,2.17
2023-04-29T21:59:02.186Z,2.37
2023-04-29T22:01:48.313Z,2.30
2023-04-29T22:04:16.555Z,2.67
2023-04-29T22:06:44.399Z,2.40
2023-04-29T22:09:12.358Z,2.10
2023-04-29T22:11:40.509Z,2.70
2023-04-29T22:14:08.565Z,2.50
2023-04-29T22:16:38.418Z,2.43
2023-04-29T22:19:07.538Z,2.40
2023-04-29T22:21:35.806Z,2.47
2023-04-29T22:24:04.132Z,2.57
2023-04-29T22:26:32.107Z,2.80
2023-04-29T22:28:59.879Z,2.20
2023-04-29T22:31:27.864Z,2.40
2023-04-29T22:33:57.011Z,2.40
2023-04-29T22:36:24.867Z,2.93
2023-04-29T22:38:53.258Z,2.50
2023-04-29T22:41:21.669Z,2.80
2023-04-29T22:43:49.886Z,2.60
2023-04-29T22:46:17.692Z,2.13
2023-04-29T22:48:45.892Z,2.23
2023-04-29T22:51:14.979Z,2.23
2023-04-29T22:53:43.229Z,2.67
2023-04-29T22:56:10.978Z,2.50
2023-04-29T22:58:39.558Z,2.40
2023-04-29T23:01:08.514Z,2.70
2023-04-29T23:03:38.699Z,2.30
2023-04-29T23:06:06.909Z,2.47
2023-04-29T23:08:36.916Z,2.80
2023-04-29T23:11:05.289Z,2.50
2023-04-29T23:13:33.312Z,2.30
2023-04-29T23:16:01.502Z,2.20
2023-04-29T23:18:29.540Z,2.23
2023-04-29T23:20:57.412Z,2.47
2023-04-29T23:23:25.396Z,2.40
2023-04-29T23:25:54.879Z,2.57
2023-04-29T23:28:24.612Z,2.40
2023-04-29T23:30:52.948Z,2.60
2023-04-29T23:33:20.953Z,2.60
2023-04-29T23:35:51.096Z,2.50
2023-04-29T23:38:19.072Z,2.50
2023-04-29T23:40:47.886Z,2.30
2023-04-29T23:43:17.349Z,2.83
2023-04-29T23:45:46.030Z,2.47
2023-04-29T23:48:14.329Z,2.70
2023-04-29T23:50:42.009Z,2.40
2023-04-29T23:53:09.773Z,3.00
2023-04-29T23:55:37.460Z,2.33
2023-04-29T23:58:05.752Z,2.20
